Time;durP1;ratioP1;P1;durP2;ratioP2;P2;SDS_P1;SDS_P2;PMS_P1;PMS_P2;Temp;Humidity;BMP_temperature;BMP_pressure;BME280_temperature;BME280_humidity;BME280_pressure;Samples;Min_cycle;Max_cycle;Signal;HPM_P1;HPM_P2
2021/05/18 00:01:04;;;;;;;1.40;1.13;;;;;;;11.29;76.02;98365.19;5128452;27;40474;-76
2021/05/18 00:03:32;;;;;;;1.30;1.07;;;;;;;11.27;76.34;98367.09;5114523;27;41735;-76
2021/05/18 00:06:02;;;;;;;2.73;1.27;;;;;;;11.20;76.62;98358.75;5108470;27;42248;-76
2021/05/18 00:08:31;;;;;;;1.97;1.17;;;;;;;11.25;76.35;98369.03;5090820;28;39089;-77
2021/05/18 00:13:49;;;;;;;2.00;1.00;;;;;;;11.20;76.05;98373.81;5092059;28;42210;-76
2021/05/18 00:16:16;;;;;;;2.67;1.20;;;;;;;11.20;76.02;98387.06;5108055;28;43560;-76
2021/05/18 00:18:45;;;;;;;1.47;1.07;;;;;;;11.18;76.04;98391.63;5107253;28;39561;-76
2021/05/18 00:21:12;;;;;;;1.73;1.10;;;;;;;11.16;75.98;98391.72;5107422;28;41061;-76
2021/05/18 00:23:39;;;;;;;2.37;1.10;;;;;;;11.15;75.99;98388.22;5090928;28;41637;-77
2021/05/18 00:26:08;;;;;;;1.63;1.50;;;;;;;11.15;76.70;98382.94;5108059;28;42443;-76
2021/05/18 00:28:35;;;;;;;2.00;1.33;;;;;;;11.12;76.64;98372.56;5141902;27;41380;-76
2021/05/18 00:31:03;;;;;;;1.37;1.27;;;;;;;11.23;76.14;98371.78;5090879;28;40462;-76
2021/05/18 00:33:32;;;;;;;2.70;1.30;;;;;;;11.38;75.68;98388.34;5108353;27;43626;-77
2021/05/18 00:36:05;;;;;;;1.43;1.03;;;;;;;11.43;75.28;98392.38;5110357;27;42475;-77
2021/05/18 00:38:32;;;;;;;3.43;1.30;;;;;;;11.44;75.56;98395.88;5111405;28;39731;-76
2021/05/18 00:41:05;;;;;;;2.73;1.60;;;;;;;11.43;75.36;98394.19;5095090;28;40881;-77
2021/05/18 00:43:32;;;;;;;1.40;1.10;;;;;;;11.45;75.69;98398.41;5110707;28;42732;-77
2021/05/18 00:45:59;;;;;;;2.47;1.50;;;;;;;11.52;75.63;98401.44;5110610;28;42925;-76
2021/05/18 00:48:27;;;;;;;2.23;1.23;;;;;;;11.57;75.30;98394.00;5094949;28;39020;-77
2021/05/18 00:50:59;;;;;;;1.83;1.50;;;;;;;11.56;75.35;98407.38;5110658;28;40796;-76
2021/05/18 00:53:27;;;;;;;2.33;1.50;;;;;;;11.46;75.22;98391.31;5110898;28;43495;-77
2021/05/18 00:56:05;;;;;;;2.40;1.40;;;;;;;11.56;75.73;98402.94;5094387;28;41206;-76
2021/05/18 00:58:38;;;;;;;1.60;1.30;;;;;;;11.60;75.14;98415.00;5112916;27;40389;-76
2021/05/18 01:01:11;;;;;;;1.93;1.20;;;;;;;11.58;75.01;98414.28;5105727;28;40766;-77
2021/05/18 01:03:38;;;;;;;2.20;1.20;;;;;;;11.54;74.99;98418.09;5145255;27;43274;-76
2021/05/18 01:06:20;;;;;;;2.13;1.17;;;;;;;11.43;75.35;98410.09;5111369;27;42198;-76
2021/05/18 01:08:51;;;;;;;2.70;1.30;;;;;;;11.54;75.27;98431.34;5112127;27;39932;-76
2021/05/18 01:11:21;;;;;;;1.40;1.30;;;;;;;11.60;74.63;98422.97;5110594;28;41494;-76
2021/05/18 01:14:07;;;;;;;2.07;1.20;;;;;;;11.66;74.76;98430.47;5110575;28;42842;-77
2021/05/18 01:16:37;;;;;;;2.87;1.30;;;;;;;11.68;74.37;98436.50;5093733;28;41897;-76
2021/05/18 01:19:06;;;;;;;2.37;1.50;;;;;;;11.73;74.37;98437.03;5109694;28;40668;-76
2021/05/18 01:21:34;;;;;;;2.63;1.60;;;;;;;11.78;74.08;98445.50;5112379;27;42868;-76
2021/05/18 01:24:02;;;;;;;3.93;1.50;;;;;;;11.82;74.13;98436.38;5110712;28;42104;-77
2021/05/18 01:26:32;;;;;;;1.83;1.20;;;;;;;11.77;73.99;98422.56;5111559;27;42379;-77
2021/05/18 01:29:05;;;;;;;1.63;1.20;;;;;;;11.88;73.85;98435.88;5093907;28;39245;-77
2021/05/18 01:31:34;;;;;;;3.13;1.47;;;;;;;11.79;73.65;98414.50;5110101;28;42868;-77
2021/05/18 01:34:04;;;;;;;1.73;1.30;;;;;;;11.90;73.60;98437.59;5109619;28;42789;-77
2021/05/18 01:36:39;;;;;;;1.00;1.00;;;;;;;11.90;73.65;98437.59;5093566;28;42163;-77
2021/05/18 01:39:23;;;;;;;1.63;1.37;;;;;;;11.91;73.30;98441.94;5093515;28;39060;-76
2021/05/18 01:44:37;;;;;;;2.00;1.40;;;;;;;11.91;73.58;98439.28;5089460;28;42787;-77
2021/05/18 01:47:08;;;;;;;1.70;1.07;;;;;;;11.93;73.50;98442.66;5087719;28;42991;-77
2021/05/18 01:49:43;;;;;;;1.80;1.40;;;;;;;11.92;73.23;98448.94;5096963;28;39781;-77
2021/05/18 01:52:11;;;;;;;1.20;1.10;;;;;;;11.85;73.31;98436.16;5110930;27;42320;-76
2021/05/18 01:54:38;;;;;;;2.63;1.20;;;;;;;11.77;73.59;98425.22;5093803;28;42708;-77
2021/05/18 01:57:19;;;;;;;1.47;1.10;;;;;;;11.80;73.51;98454.19;5111069;27;42792;-76
2021/05/18 01:59:53;;;;;;;0.90;0.90;;;;;;;11.70;73.43;98454.97;5092651;28;38751;-77
2021/05/18 02:02:24;;;;;;;1.43;1.17;;;;;;;11.59;73.53;98450.44;5093443;28;41945;-77
2021/05/18 02:05:01;;;;;;;2.67;1.43;;;;;;;11.48;73.96;98447.72;5093331;28;42114;-77
2021/05/18 02:07:41;;;;;;;2.23;1.20;;;;;;;11.52;73.87;98460.63;5093107;28;41782;-77
2021/05/18 02:10:11;;;;;;;1.83;1.23;;;;;;;11.49;74.06;98457.38;5109308;28;40968;-77
2021/05/18 02:12:43;;;;;;;1.20;1.10;;;;;;;11.45;74.27;98443.50;5109703;28;41813;-77
2021/05/18 02:15:23;;;;;;;2.10;1.47;;;;;;;11.50;74.02;98454.59;5092344;28;41525;-76
2021/05/18 02:18:14;;;;;;;1.57;1.30;;;;;;;11.61;74.18;98459.13;5109281;28;41229;-77
2021/05/18 02:20:46;;;;;;;2.37;1.57;;;;;;;11.62;73.72;98460.81;5112043;27;39783;-77
2021/05/18 02:26:07;;;;;;;2.13;1.20;;;;;;;11.64;73.87;98463.34;5109997;28;42820;-77
2021/05/18 02:28:50;;;;;;;1.67;1.20;;;;;;;11.57;73.66;98455.00;5092260;28;41144;-77
2021/05/18 02:31:18;;;;;;;2.10;1.10;;;;;;;11.60;73.97;98452.16;5109683;28;39814;-77
2021/05/18 02:33:49;;;;;;;1.37;1.13;;;;;;;11.59;73.65;98462.84;5108998;28;42540;-76
2021/05/18 02:36:19;;;;;;;1.40;1.30;;;;;;;11.61;74.24;98467.09;5110727;27;42790;-77
2021/05/18 02:38:47;;;;;;;2.43;1.30;;;;;;;11.58;74.11;98469.13;5092738;28;41991;-77
2021/05/18 02:41:18;;;;;;;3.07;1.27;;;;;;;11.57;73.97;98470.06;5109735;28;38847;-76
2021/05/18 02:43:55;;;;;;;2.30;1.10;;;;;;;11.56;74.05;98471.88;5108857;28;42389;-77
2021/05/18 02:49:11;;;;;;;1.10;1.00;;;;;;;11.56;74.11;98468.38;5109126;28;42812;-76
2021/05/18 02:51:42;;;;;;;1.90;1.20;;;;;;;11.56;74.12;98477.19;5109722;27;39971;-76
2021/05/18 02:54:12;;;;;;;1.77;1.27;;;;;;;11.54;74.28;98476.44;5108625;28;41361;-76
2021/05/18 02:56:44;;;;;;;2.80;1.30;;;;;;;11.51;74.33;98474.00;5109195;28;42501;-76
2021/05/18 02:59:15;;;;;;;1.93;1.17;;;;;;;11.47;74.25;98480.50;5108468;27;43216;-77
2021/05/18 03:01:44;;;;;;;1.83;1.40;;;;;;;11.44;74.12;98475.41;5109324;28;41969;-76
2021/05/18 03:04:12;;;;;;;2.60;1.70;;;;;;;11.29;74.21;98455.31;5110262;28;20237;-77
2021/05/18 03:06:41;;;;;;;1.47;1.13;;;;;;;11.40;74.13;98481.88;5108782;28;42652;-76
2021/05/18 03:09:11;;;;;;;1.40;1.30;;;;;;;11.40;74.32;98487.19;5091917;28;41122;-77
2021/05/18 03:11:40;;;;;;;2.13;1.60;;;;;;;11.41;74.42;98479.13;5092318;28;38529;-77
2021/05/18 03:14:10;;;;;;;3.80;1.50;;;;;;;11.46;74.23;98487.63;5110293;27;41479;-77
2021/05/18 03:16:38;;;;;;;1.90;1.70;;;;;;;11.47;73.87;98483.16;5107729;28;42389;-76
2021/05/18 03:19:07;;;;;;;1.87;1.43;;;;;;;11.46;73.76;98486.75;5107993;27;43099;-77
2021/05/18 03:21:34;;;;;;;1.77;1.67;;;;;;;11.54;73.99;98489.69;5109762;27;40657;-76
2021/05/18 03:24:02;;;;;;;4.10;2.03;;;;;;;11.57;74.17;98484.19;5109177;28;41568;-77
2021/05/18 03:26:32;;;;;;;2.20;1.67;;;;;;;11.55;73.87;98470.19;5112863;28;41950;-76
2021/05/18 03:29:02;;;;;;;2.03;1.83;;;;;;;11.64;73.61;98482.75;5113872;28;42463;-77
2021/05/18 03:34:31;;;;;;;2.17;1.70;;;;;;;11.64;73.89;98487.22;5113527;27;41926;-76
2021/05/18 03:37:00;;;;;;;2.03;1.40;;;;;;;11.58;74.10;98496.47;5097334;28;41973;-76
2021/05/18 03:39:28;;;;;;;2.10;1.53;;;;;;;11.56;74.01;98498.41;5113697;28;42882;-77
2021/05/18 03:42:01;;;;;;;2.30;1.70;;;;;;;11.52;74.19;98502.22;5109229;27;39761;-77
2021/05/18 03:44:43;;;;;;;1.93;1.60;;;;;;;11.48;74.19;98492.81;5109174;27;40854;-77
2021/05/18 03:52:52;;;;;;;3.77;1.83;;;;;;;11.46;73.87;98500.03;5107194;28;40868;-77
2021/05/18 04:03:41;;;;;;;1.87;1.30;;;;;;;11.45;74.19;98507.13;5108141;28;39954;-76
2021/05/18 04:17:13;;;;;;;2.47;1.70;;;;;;;11.68;73.84;98524.03;5106991;28;41675;-76
2021/05/18 04:19:43;;;;;;;2.80;1.83;;;;;;;11.74;73.85;98523.59;5109057;27;42779;-77
2021/05/18 04:22:22;;;;;;;3.47;1.70;;;;;;;11.77;73.51;98518.09;5089944;28;41532;-77
2021/05/18 04:38:58;;;;;;;1.87;1.37;;;;;;;12.48;72.10;98546.44;5107911;28;40811;-77
2021/05/18 04:41:43;;;;;;;1.97;1.40;;;;;;;12.57;71.76;98550.22;5089624;28;41821;-77
2021/05/18 04:49:56;;;;;;;1.80;1.50;;;;;;;12.80;70.59;98565.25;5107474;28;41710;-76
2021/05/18 04:52:24;;;;;;;3.23;1.80;;;;;;;12.83;70.84;98567.69;5107342;28;41764;-76
2021/05/18 05:00:25;;;;;;;1.63;1.20;;;;;;;13.13;69.86;98553.81;5107777;28;42192;-77
2021/05/18 05:03:23;;;;;;;1.53;1.43;;;;;;;13.34;69.63;98564.66;5086438;28;41038;-77
2021/05/18 05:08:42;;;;;;;2.13;1.80;;;;;;;13.93;67.74;98575.84;5107120;28;39806;-77
2021/05/18 05:14:18;;;;;;;2.77;1.30;;;;;;;14.15;66.75;98582.94;5107144;28;43352;-77
2021/05/18 05:16:45;;;;;;;1.60;1.50;;;;;;;14.17;66.28;98583.66;5141634;27;42742;-77
2021/05/18 05:19:14;;;;;;;1.50;1.40;;;;;;;14.30;66.41;98595.00;5107024;28;40051;-77
2021/05/18 05:21:41;;;;;;;1.30;1.20;;;;;;;14.42;65.84;98592.34;5092104;28;40748;-78
2021/05/18 05:24:09;;;;;;;2.17;1.60;;;;;;;14.50;65.46;98595.22;5111341;27;42842;-78
2021/05/18 05:26:37;;;;;;;2.33;1.10;;;;;;;14.54;65.07;98594.84;5112139;27;41834;-77
2021/05/18 05:29:05;;;;;;;1.43;1.23;;;;;;;14.69;65.29;98593.56;5109156;28;40012;-77
2021/05/18 05:31:33;;;;;;;1.93;1.23;;;;;;;14.77;64.20;98581.41;5093710;28;40644;-78
2021/05/18 05:34:00;;;;;;;1.67;1.23;;;;;;;14.99;63.55;98586.63;5110307;27;42824;-78
2021/05/18 05:36:28;;;;;;;2.90;1.30;;;;;;;15.11;63.55;98604.25;5111457;27;41850;-77
2021/05/18 05:39:02;;;;;;;1.77;1.43;;;;;;;15.19;62.67;98604.47;5092239;28;40026;-78
2021/05/18 05:41:29;;;;;;;2.03;1.20;;;;;;;15.24;62.28;98607.56;5110074;27;41158;-77
2021/05/18 05:43:56;;;;;;;2.20;1.30;;;;;;;15.26;61.86;98597.63;5110257;28;42510;-77
2021/05/18 05:46:23;;;;;;;1.73;1.20;;;;;;;15.37;61.13;98612.69;5111856;27;42034;-79
2021/05/18 05:48:53;;;;;;;2.47;1.70;;;;;;;15.43;60.83;98613.03;5110059;28;39666;-78
2021/05/18 05:51:22;;;;;;;4.27;1.40;;;;;;;15.47;60.84;98621.59;5099144;28;41407;-75
2021/05/18 05:53:51;;;;;;;1.53;1.23;;;;;;;15.47;60.54;98618.91;5107348;28;41997;-75
2021/05/18 05:56:18;;;;;;;2.47;1.30;;;;;;;15.52;60.76;98622.06;5109095;28;42311;-75
2021/05/18 05:58:47;;;;;;;5.33;1.70;;;;;;;15.55;60.59;98615.66;5110104;27;40081;-75
2021/05/18 06:01:14;;;;;;;3.03;1.27;;;;;;;15.79;60.13;98619.69;5105748;28;42364;-73
2021/05/18 06:03:42;;;;;;;1.77;1.33;;;;;;;15.86;60.18;98625.31;5110589;27;42732;-75
2021/05/18 06:06:09;;;;;;;1.63;1.27;;;;;;;15.93;60.10;98625.66;5109029;28;42837;-75
2021/05/18 06:08:38;;;;;;;2.23;1.60;;;;;;;16.15;59.32;98631.63;5110177;28;39891;-75
2021/05/18 06:11:11;;;;;;;2.53;1.10;;;;;;;16.27;58.17;98644.88;5108565;28;40981;-75
2021/05/18 06:41:55;;;;;;;3.60;1.47;;;;;;;16.59;55.71;98656.19;5066772;28;40975;-78
2021/05/18 06:47:12;;;;;;;3.83;1.43;;;;;;;16.68;56.18;98654.56;5107208;28;42037;-75
2021/05/18 06:49:41;;;;;;;3.30;1.40;;;;;;;16.82;55.91;98663.00;5108363;28;42235;-75
2021/05/18 06:52:08;;;;;;;3.83;1.83;;;;;;;17.03;55.37;98664.69;5108705;27;40908;-74
2021/05/18 06:54:35;;;;;;;2.10;1.43;;;;;;;17.31;55.13;98663.81;5108556;27;41641;-76
2021/05/18 06:57:05;;;;;;;5.10;2.27;;;;;;;17.53;54.26;98668.88;5107571;28;45271;-74
2021/05/18 07:02:18;;;;;;;2.80;1.50;;;;;;;17.93;52.63;98681.19;5108644;28;39838;-73
2021/05/18 07:04:46;;;;;;;2.37;1.30;;;;;;;17.75;53.38;98672.22;5110053;27;42155;-74
2021/05/18 07:07:18;;;;;;;2.83;1.50;;;;;;;17.54;52.39;98686.63;5109746;27;42378;-75
2021/05/18 07:09:45;;;;;;;4.87;1.60;;;;;;;17.36;53.59;98674.94;5108439;28;41229;-77
2021/05/18 07:12:19;;;;;;;3.67;1.70;;;;;;;17.21;53.64;98668.34;5108469;28;41938;-76
2021/05/18 07:14:47;;;;;;;3.00;1.70;;;;;;;17.28;54.38;98668.63;5110062;27;41434;-75
2021/05/18 07:17:14;;;;;;;2.63;1.50;;;;;;;17.35;54.27;98664.38;5109117;27;43688;-76
2021/05/18 07:19:41;;;;;;;4.03;1.83;;;;;;;17.71;54.00;98670.81;5106713;28;42961;-75
2021/05/18 07:22:08;;;;;;;2.40;1.77;;;;;;;18.32;52.99;98671.13;5107079;28;40752;-74
2021/05/18 07:24:35;;;;;;;4.23;1.30;;;;;;;19.05;51.63;98674.63;5125681;27;41171;-74
2021/05/18 07:27:03;;;;;;;2.67;1.47;;;;;;;20.50;48.82;98694.63;5108625;27;42435;-72
2021/05/18 07:29:30;;;;;;;1.53;1.37;;;;;;;20.69;46.89;98694.34;5108949;27;42066;-74
2021/05/18 07:31:58;;;;;;;2.97;1.53;;;;;;;21.14;45.66;98710.13;5107751;28;39364;-75
2021/05/18 07:34:26;;;;;;;2.50;2.00;;;;;;;21.37;45.27;98688.78;5090577;28;41234;-74
2021/05/18 07:36:53;;;;;;;1.37;1.27;;;;;;;21.42;45.17;98713.34;5107516;28;41626;-74
2021/05/18 07:39:20;;;;;;;1.83;1.20;;;;;;;21.04;45.76;98709.41;5107909;28;42900;-73
2021/05/18 07:41:47;;;;;;;1.73;1.10;;;;;;;21.09;44.74;98707.91;5108647;27;39870;-75
2021/05/18 07:44:15;;;;;;;4.57;1.50;;;;;;;21.43;44.02;98726.66;5089468;28;41748;-75
2021/05/18 07:46:43;;;;;;;2.13;1.30;;;;;;;21.75;43.69;98723.13;5108843;27;42799;-73
2021/05/18 07:49:19;;;;;;;2.53;1.30;;;;;;;21.46;42.35;98738.97;5106773;28;42214;-74
2021/05/18 08:00:03;;;;;;;3.30;1.13;;;;;;;21.33;40.80;98746.69;5069877;28;41023;-74
2021/05/18 08:05:40;;;;;;;1.73;0.93;;;;;;;21.22;42.26;98725.47;5038887;28;41966;-73
2021/05/18 08:08:07;;;;;;;2.30;0.90;;;;;;;21.41;41.49;98733.22;5078337;28;42676;-74
2021/05/18 08:10:45;;;;;;;1.07;0.93;;;;;;;22.05;40.02;98729.69;5096195;28;42934;-73
2021/05/18 08:13:12;;;;;;;1.30;0.70;;;;;;;21.99;40.21;98727.69;5107398;28;40890;-76
2021/05/18 08:15:57;;;;;;;1.00;0.80;;;;;;;22.18;39.28;98739.94;5107482;28;42438;-74
2021/05/18 08:18:43;;;;;;;1.43;0.70;;;;;;;22.98;37.35;98754.19;5106801;28;43199;-74
2021/05/18 10:35:05;;;;;;;2.60;0.90;;;;;;;32.01;23.06;98723.41;5109583;28;42664;-77
2021/05/18 10:37:41;;;;;;;1.20;0.80;;;;;;;32.05;23.59;98704.56;5110976;27;42933;-77
2021/05/18 10:40:36;;;;;;;1.33;0.93;;;;;;;30.48;24.06;98709.28;5109061;27;39952;-75
2021/05/18 10:43:05;;;;;;;1.03;0.67;;;;;;;28.88;25.70;98690.75;5072638;27;41228;-77
2021/05/18 10:46:07;;;;;;;1.43;0.80;;;;;;;27.49;27.46;98685.50;5109827;27;42857;-78
2021/05/18 10:49:16;;;;;;;2.63;1.17;;;;;;;27.00;28.04;98679.56;5110039;27;42368;-76
2021/05/18 10:51:52;;;;;;;1.27;1.00;;;;;;;27.10;27.73;98680.81;5108756;28;39692;-77
2021/05/18 10:54:23;;;;;;;11.17;8.63;;;;;;;27.65;28.35;98672.56;5108883;28;40581;-77
2021/05/18 10:57:18;;;;;;;2.80;1.40;;;;;;;27.53;28.17;98654.13;5106192;28;44039;-78
2021/05/18 10:59:51;;;;;;;1.87;1.00;;;;;;;27.32;28.74;98673.34;5109105;27;41934;-75
2021/05/18 11:02:21;;;;;;;3.83;0.90;;;;;;;27.32;28.91;98657.03;5087847;28;41147;-75
2021/05/18 11:04:49;;;;;;;2.10;1.00;;;;;;;27.35;29.05;98664.75;5088084;28;41698;-77
2021/05/18 11:07:20;;;;;;;0.90;0.90;;;;;;;27.06;29.18;98671.44;5089448;28;43888;-76
2021/05/18 11:09:48;;;;;;;2.70;1.03;;;;;;;26.86;27.92;98670.47;5079773;28;41536;-76
2021/05/18 11:12:17;;;;;;;2.67;1.07;;;;;;;26.58;29.02;98632.56;5107807;28;38895;-76
2021/05/18 11:14:54;;;;;;;2.63;1.03;;;;;;;26.79;31.45;98623.44;5108606;28;40949;-76
2021/05/18 11:17:25;;;;;;;1.60;1.00;;;;;;;26.99;31.49;98629.78;5108506;28;43718;-76
2021/05/18 11:20:00;;;;;;;1.40;0.87;;;;;;;27.13;29.72;98636.09;5108354;28;41121;-76
2021/05/18 11:25:13;;;;;;;2.67;1.20;;;;;;;27.05;29.57;98628.13;5107565;28;41451;-75
2021/05/18 11:27:42;;;;;;;1.17;0.83;;;;;;;27.42;27.66;98646.59;5106839;28;43284;-76
2021/05/18 11:30:10;;;;;;;2.43;1.00;;;;;;;27.96;28.55;98631.91;5107618;28;41085;-76
2021/05/18 11:32:37;;;;;;;1.40;0.90;;;;;;;28.82;28.35;98627.03;5108666;28;40643;-76
2021/05/18 11:35:07;;;;;;;2.73;0.90;;;;;;;29.59;24.48;98644.16;5090387;28;41941;-75
2021/05/18 11:37:34;;;;;;;1.90;0.93;;;;;;;30.81;23.89;98665.16;5106976;28;43339;-76
2021/05/18 11:40:10;;;;;;;1.50;0.90;;;;;;;32.29;21.88;98667.06;5106835;28;41973;-75
2021/05/18 11:42:37;;;;;;;3.10;1.10;;;;;;;32.84;20.99;98670.19;5108578;28;41516;-76
2021/05/18 11:45:13;;;;;;;0.90;0.90;;;;;;;33.70;19.32;98663.56;5108487;27;41207;-76
2021/05/18 11:47:41;;;;;;;1.80;0.93;;;;;;;34.75;20.07;98670.06;5108273;27;43294;-75
2021/05/18 11:50:18;;;;;;;2.13;1.00;;;;;;;35.36;18.73;98687.34;5106901;28;41983;-76
2021/05/18 11:52:46;;;;;;;2.90;1.00;;;;;;;35.52;17.85;98687.22;5106391;28;40751;-77
2021/05/18 11:55:22;;;;;;;1.73;1.10;;;;;;;36.19;19.34;98672.06;5107365;28;41471;-77
2021/05/18 11:57:52;;;;;;;2.27;1.20;;;;;;;36.96;17.43;98676.91;5107455;27;43542;-76
2021/05/18 12:00:22;;;;;;;1.73;1.00;;;;;;;35.11;17.82;98674.94;5108036;28;42221;-74
2021/05/18 12:03:05;;;;;;;2.77;1.00;;;;;;;35.69;18.47;98675.25;5108762;27;40427;-77
2021/05/18 12:05:34;;;;;;;1.50;1.27;;;;;;;37.06;18.16;98641.03;5129105;27;41439;-75
2021/05/18 12:08:01;;;;;;;1.80;1.20;;;;;;;37.12;16.91;98672.22;5088745;28;43398;-75
2021/05/18 12:10:34;;;;;;;2.37;1.23;;;;;;;37.15;17.59;98667.00;5077500;28;41486;-77
2021/05/18 12:13:05;;;;;;;1.90;1.00;;;;;;;38.13;17.85;98627.28;5107520;28;39903;-75
2021/05/18 12:15:33;;;;;;;1.67;1.00;;;;;;;39.07;15.12;98681.78;5106741;27;42255;-76
2021/05/18 12:18:00;;;;;;;1.43;1.00;;;;;;;38.90;14.28;98686.81;5106526;28;41081;-74
2021/05/18 12:20:28;;;;;;;2.30;1.30;;;;;;;39.08;14.96;98677.88;5109030;27;42741;-77
2021/05/18 12:22:55;;;;;;;1.43;1.00;;;;;;;39.25;14.69;98667.25;5106730;28;39764;-77
2021/05/18 12:25:30;;;;;;;5.37;1.10;;;;;;;36.90;16.48;98664.16;5107399;28;41538;-78
2021/05/18 12:28:05;;;;;;;2.00;1.10;;;;;;;35.23;18.07;98653.59;5108234;27;42438;-76
2021/05/18 12:30:39;;;;;;;2.97;0.90;;;;;;;35.78;18.84;98649.72;5107927;27;40940;-75
2021/05/18 12:33:07;;;;;;;1.90;1.10;;;;;;;36.66;16.91;98656.34;5111173;27;40103;-76
2021/05/18 12:35:34;;;;;;;1.57;0.80;;;;;;;35.59;17.02;98660.28;5108982;28;42523;-75
2021/05/18 12:38:14;;;;;;;2.97;1.00;;;;;;;36.49;17.34;98660.38;5110283;28;41821;-76
2021/05/18 12:40:44;;;;;;;2.30;1.03;;;;;;;37.35;15.48;98669.81;5111075;28;42643;-77
2021/05/18 12:43:13;;;;;;;1.23;0.73;;;;;;;37.89;15.81;98672.09;5110771;28;39913;-76
2021/05/18 12:45:43;;;;;;;3.30;0.70;;;;;;;37.83;16.01;98662.16;5109860;28;42433;-76
2021/05/18 12:48:13;;;;;;;1.07;0.60;;;;;;;35.71;17.06;98662.88;5101320;28;41751;-77
2021/05/18 12:50:44;;;;;;;2.33;0.80;;;;;;;33.75;18.36;98649.97;5123541;27;43665;-76
2021/05/18 12:53:25;;;;;;;1.03;0.70;;;;;;;34.70;17.91;98648.00;5122597;28;38831;-77
2021/05/18 12:55:52;;;;;;;2.03;0.53;;;;;;;35.97;17.24;98667.50;5119426;28;41948;-77
2021/05/18 12:58:28;;;;;;;0.87;0.53;;;;;;;35.44;16.05;98673.09;5125382;27;43851;-77
2021/05/18 13:01:11;;;;;;;1.00;0.80;;;;;;;33.38;18.42;98657.00;5121220;28;42281;-77
2021/05/18 13:03:39;;;;;;;0.83;0.80;;;;;;;31.86;19.65;98642.78;5120139;27;40514;-76
2021/05/18 13:06:07;;;;;;;1.60;0.60;;;;;;;31.87;19.98;98649.91;5144537;27;41660;-76
2021/05/18 13:08:36;;;;;;;1.80;0.63;;;;;;;31.47;19.97;98647.81;5111444;27;42557;-75
2021/05/18 13:11:18;;;;;;;1.73;0.70;;;;;;;30.80;20.13;98602.50;5110712;27;42204;-76
2021/05/18 13:13:47;;;;;;;1.57;0.70;;;;;;;29.67;22.03;98630.25;5110430;28;41358;-76
2021/05/18 13:16:17;;;;;;;1.23;0.60;;;;;;;28.43;22.86;98629.94;5088418;28;41865;-76
2021/05/18 13:18:55;;;;;;;0.97;0.70;;;;;;;27.42;24.44;98627.53;5073473;28;42898;-75
2021/05/18 13:21:26;;;;;;;2.83;0.73;;;;;;;26.05;26.43;98583.44;5090990;28;42524;-79
2021/05/18 13:24:22;;;;;;;7.57;6.73;;;;;;;25.40;27.62;98606.34;5090667;28;39671;-79
2021/05/18 13:26:49;;;;;;;5.30;3.73;;;;;;;24.90;28.28;98606.47;5107585;28;40766;-78
2021/05/18 13:29:18;;;;;;;2.27;1.00;;;;;;;24.56;29.69;98621.53;5111173;27;43481;-76
2021/05/18 13:31:47;;;;;;;5.07;0.90;;;;;;;23.86;31.37;98611.22;5108072;28;42971;-76
2021/05/18 13:34:15;;;;;;;4.10;0.90;;;;;;;23.33;31.69;98633.03;5111353;27;40846;-77
2021/05/18 13:36:43;;;;;;;4.60;0.90;;;;;;;22.84;33.13;98609.94;5108877;28;42504;-76
2021/05/18 13:39:12;;;;;;;3.47;0.80;;;;;;;23.59;32.78;98610.00;5111003;27;43423;-75
2021/05/18 13:41:40;;;;;;;1.60;0.50;;;;;;;25.08;30.68;98623.16;5091356;27;42131;-74
2021/05/18 13:44:08;;;;;;;1.57;1.00;;;;;;;24.73;30.89;98624.03;5110653;27;40601;-77
2021/05/18 13:46:36;;;;;;;2.53;0.50;;;;;;;24.18;32.14;98626.22;5107573;28;41476;-74
2021/05/18 13:49:04;;;;;;;0.50;0.50;;;;;;;23.51;32.59;98622.72;5109779;28;42655;-75
2021/05/18 13:51:31;;;;;;;1.80;0.60;;;;;;;22.97;33.63;98612.03;5109435;28;42960;-76
2021/05/18 13:54:00;;;;;;;1.87;0.73;;;;;;;22.66;34.29;98617.44;5108320;28;40640;-78
2021/05/18 13:56:27;;;;;;;0.50;0.50;;;;;;;22.46;35.07;98618.91;5110046;28;42267;-77
2021/05/18 13:58:54;;;;;;;1.03;0.50;;;;;;;22.30;34.68;98606.34;5109592;28;42298;-76
2021/05/18 14:01:21;;;;;;;0.90;0.50;;;;;;;22.31;34.31;98610.72;5111327;27;42932;-74
2021/05/18 14:03:49;;;;;;;0.60;0.47;;;;;;;22.36;34.71;98611.06;5110531;27;39936;-75
2021/05/18 14:06:18;;;;;;;1.20;0.67;;;;;;;22.50;35.56;98596.78;5109967;28;41634;-77
2021/05/18 14:08:45;;;;;;;0.80;0.50;;;;;;;23.32;35.21;98596.22;5092996;28;41787;-75
2021/05/18 14:11:13;;;;;;;0.77;0.40;;;;;;;24.27;32.59;98605.34;5108693;28;42298;-76
2021/05/18 14:13:42;;;;;;;0.77;0.33;;;;;;;24.78;30.99;98605.31;5111239;27;40006;-77
2021/05/18 14:16:14;;;;;;;0.50;0.50;;;;;;;24.93;31.85;98588.00;5108245;28;41775;-76
2021/05/18 14:18:42;;;;;;;0.40;0.40;;;;;;;25.42;31.95;98598.03;5092750;28;42740;-75
2021/05/18 14:21:09;;;;;;;0.90;0.60;;;;;;;25.52;31.37;98581.41;5108058;28;41568;-75
2021/05/18 14:23:42;;;;;;;0.40;0.30;;;;;;;25.56;32.51;98598.97;5110044;28;41099;-75
2021/05/18 14:26:09;;;;;;;1.47;0.43;;;;;;;25.40;32.36;98592.78;5108901;28;40292;-74
2021/05/18 14:28:37;;;;;;;0.47;0.40;;;;;;;25.41;31.02;98609.91;5108891;28;43940;-76
2021/05/18 14:31:05;;;;;;;0.50;0.40;;;;;;;25.38;31.42;98600.28;5110120;27;42161;-75
2021/05/18 14:33:33;;;;;;;0.70;0.50;;;;;;;25.31;32.32;98593.97;5109236;27;39727;-75
2021/05/18 14:36:00;;;;;;;0.63;0.40;;;;;;;25.18;31.66;98599.28;5109707;27;42111;-75
2021/05/18 14:38:28;;;;;;;1.23;0.80;;;;;;;24.82;33.15;98591.19;5108198;28;42639;-77
2021/05/18 14:46:24;;;;;;;1.10;0.90;;;;;;;23.99;34.33;98581.63;5103763;28;42457;-77
2021/05/18 14:57:18;;;;;;;2.23;0.87;;;;;;;23.23;36.26;98584.66;5098993;27;42324;-77
2021/05/18 14:59:45;;;;;;;1.00;0.53;;;;;;;23.11;35.46;98573.44;5109756;28;41324;-78
2021/05/18 15:02:12;;;;;;;2.37;0.80;;;;;;;23.08;35.75;98570.25;5109246;28;44842;-77
2021/05/18 15:04:39;;;;;;;1.23;0.60;;;;;;;23.05;36.08;98571.44;5089086;28;38979;-77
2021/05/18 15:07:07;;;;;;;0.80;0.60;;;;;;;23.16;35.57;98571.00;5088570;28;40750;-77
2021/05/18 15:09:35;;;;;;;0.70;0.47;;;;;;;23.33;35.75;98565.47;5089314;28;42691;-77
2021/05/18 15:12:03;;;;;;;0.50;0.50;;;;;;;23.49;36.37;98566.13;5104655;28;42642;-78
2021/05/18 15:14:31;;;;;;;1.30;0.67;;;;;;;23.72;35.15;98576.91;5087855;28;39787;-78
2021/05/18 15:16:58;;;;;;;0.73;0.50;;;;;;;24.02;34.98;98571.47;5142749;27;42138;-77
2021/05/18 15:19:26;;;;;;;1.57;0.80;;;;;;;24.15;33.75;98587.88;5092133;28;41837;-77
2021/05/18 15:21:54;;;;;;;1.13;0.50;;;;;;;24.21;33.54;98585.28;5123554;27;41231;-78
2021/05/18 15:24:21;;;;;;;2.70;0.80;;;;;;;24.06;34.59;98583.59;5129893;27;40570;-77
2021/05/18 15:26:48;;;;;;;1.33;0.60;;;;;;;24.18;35.21;98571.28;5112159;27;40665;-78
2021/05/18 15:29:16;;;;;;;1.20;0.67;;;;;;;23.98;34.80;98571.84;5128763;27;43590;-77
2021/05/18 15:31:44;;;;;;;0.90;0.70;;;;;;;23.70;34.31;98584.38;5101210;28;41534;-77
2021/05/18 15:34:11;;;;;;;1.07;0.60;;;;;;;23.48;34.36;98569.03;5108431;28;39968;-77
2021/05/18 15:36:39;;;;;;;0.60;0.60;;;;;;;23.46;35.58;98560.28;5108221;28;40114;-77
2021/05/18 15:39:07;;;;;;;1.13;0.70;;;;;;;23.38;35.98;98558.47;5110364;27;43226;-77
2021/05/18 15:41:34;;;;;;;1.07;0.70;;;;;;;23.20;35.33;98566.09;5122503;27;42463;-76
2021/05/18 15:44:03;;;;;;;0.97;0.60;;;;;;;23.04;35.60;98560.81;5088525;28;39150;-77
2021/05/18 15:46:31;;;;;;;1.63;0.63;;;;;;;23.05;36.09;98551.69;5071190;28;41194;-78
2021/05/18 15:48:59;;;;;;;1.53;0.70;;;;;;;22.97;35.83;98560.72;5072515;28;42651;-77
2021/05/18 15:51:26;;;;;;;1.67;0.70;;;;;;;22.65;36.78;98555.53;5110395;27;41955;-77
2021/05/18 15:53:53;;;;;;;0.90;0.57;;;;;;;22.35;37.52;98559.97;5108573;28;40729;-77
2021/05/18 15:56:22;;;;;;;0.90;0.60;;;;;;;21.80;38.38;98501.53;5109873;27;42416;-77
2021/05/18 15:58:49;;;;;;;1.27;0.50;;;;;;;21.82;39.10;98553.44;5108166;28;42670;-76
2021/05/18 16:01:16;;;;;;;1.07;0.80;;;;;;;21.50;39.19;98565.16;5091758;28;42148;-77
2021/05/18 16:03:44;;;;;;;0.93;0.60;;;;;;;21.25;39.05;98567.06;5109056;28;41533;-76
2021/05/18 16:06:12;;;;;;;1.80;0.47;;;;;;;21.02;38.02;98577.63;5107810;27;41598;-76
2021/05/18 16:08:59;;;;;;;1.40;0.40;;;;;;;20.89;37.97;98577.31;5109094;27;42611;-77
2021/05/18 16:11:26;;;;;;;0.90;0.50;;;;;;;20.89;38.17;98563.88;5108475;28;42218;-77
2021/05/18 16:13:53;;;;;;;0.40;0.40;;;;;;;20.97;38.65;98561.16;5109435;27;40030;-76
2021/05/18 16:16:21;;;;;;;1.03;0.57;;;;;;;21.31;38.37;98560.97;5106912;28;41805;-77